createdAt,value
2019-01-30T00:00:40.916Z,15.53
2019-01-30T00:04:44.348Z,17.80
2019-01-30T00:08:47.775Z,20.13
2019-01-30T00:12:51.178Z,22.03
2019-01-30T00:16:54.608Z,19.67
2019-01-30T00:20:58.034Z,15.37
2019-01-30T00:25:01.467Z,16.90
2019-01-30T00:29:04.996Z,18.10
2019-01-30T00:33:08.412Z,19.53
2019-01-30T00:37:11.911Z,21.23
2019-01-30T00:41:15.359Z,19.90
2019-01-30T00:45:20.333Z,19.37
2019-01-30T00:49:23.776Z,21.73
2019-01-30T00:53:27.180Z,23.13
2019-01-30T00:57:30.683Z,18.83
2019-01-30T01:01:43.348Z,17.70
2019-01-30T01:05:46.775Z,19.53
2019-01-30T01:09:50.194Z,21.23
2019-01-30T01:13:53.631Z,19.50
2019-01-30T01:17:57.068Z,18.47
2019-01-30T01:22:00.542Z,18.63
2019-01-30T01:26:04.052Z,21.50
2019-01-30T01:30:10.567Z,20.67
2019-01-30T01:34:13.985Z,21.13
2019-01-30T01:38:17.419Z,20.17
2019-01-30T01:42:20.850Z,22.30
2019-01-30T01:46:24.279Z,21.33
2019-01-30T01:50:27.714Z,19.90
2019-01-30T01:54:31.137Z,24.07
2019-01-30T01:58:34.567Z,18.63
2019-01-30T02:02:38.003Z,19.93
2019-01-30T02:06:41.456Z,18.00
2019-01-30T02:10:44.912Z,20.57
2019-01-30T02:14:48.388Z,21.23
2019-01-30T02:18:51.820Z,18.87
2019-01-30T02:22:55.321Z,18.57
2019-01-30T02:26:58.752Z,17.90
2019-01-30T02:31:02.345Z,19.03
2019-01-30T02:35:06.508Z,18.13
2019-01-30T02:39:09.948Z,20.57
2019-01-30T02:43:13.375Z,18.10
2019-01-30T02:47:16.816Z,23.80
2019-01-30T02:51:20.229Z,21.43
2019-01-30T02:55:23.728Z,19.93
2019-01-30T02:59:27.162Z,21.93
2019-01-30T03:03:30.596Z,23.27
2019-01-30T03:07:34.023Z,22.77
2019-01-30T03:11:37.450Z,22.03
2019-01-30T03:15:40.884Z,19.93
2019-01-30T03:19:44.311Z,22.50
2019-01-30T03:23:47.751Z,22.30
2019-01-30T03:27:51.250Z,20.90
2019-01-30T03:31:54.693Z,20.07
2019-01-30T03:35:58.179Z,24.80
2019-01-30T03:40:01.615Z,20.50
2019-01-30T03:44:05.043Z,19.67
2019-01-30T03:48:08.459Z,19.23
2019-01-30T03:52:11.898Z,20.47
2019-01-30T03:56:15.415Z,19.53
2019-01-30T04:00:21.096Z,18.13
2019-01-30T04:04:24.523Z,22.20
2019-01-30T04:08:27.949Z,22.37
2019-01-30T04:12:31.388Z,19.90
2019-01-30T04:16:34.828Z,19.70
2019-01-30T04:20:38.266Z,22.73
2019-01-30T04:24:41.739Z,24.77
2019-01-30T04:28:45.155Z,20.30
2019-01-30T04:32:48.659Z,19.77
2019-01-30T04:36:52.103Z,20.30
2019-01-30T04:40:55.613Z,19.27
2019-01-30T04:44:59.038Z,19.97
2019-01-30T04:49:02.464Z,19.77
2019-01-30T04:53:05.892Z,19.03
2019-01-30T04:57:09.333Z,20.97
2019-01-30T05:01:12.844Z,19.73
2019-01-30T05:05:16.269Z,20.77
2019-01-30T05:09:19.709Z,19.00
2019-01-30T05:13:23.134Z,19.40
2019-01-30T05:17:26.565Z,19.43
2019-01-30T05:21:29.987Z,20.77
2019-01-30T05:25:33.398Z,20.83
2019-01-30T05:29:36.855Z,21.30
2019-01-30T05:33:40.297Z,20.83
2019-01-30T05:37:43.736Z,21.03
2019-01-30T05:41:47.196Z,22.70
2019-01-30T05:45:50.607Z,22.97
2019-01-30T05:49:54.042Z,18.53
2019-01-30T05:53:57.540Z,21.77
2019-01-30T05:58:00.984Z,21.70
2019-01-30T06:02:11.892Z,20.03
2019-01-30T06:06:09.628Z,20.73
2019-01-30T06:10:13.215Z,20.43
2019-01-30T06:14:16.652Z,20.57
2019-01-30T06:18:20.087Z,21.40
2019-01-30T06:22:23.532Z,20.13
2019-01-30T06:26:26.985Z,23.47
2019-01-30T06:30:30.411Z,24.07
2019-01-30T06:34:33.939Z,28.17
2019-01-30T06:38:37.381Z,25.10
2019-01-30T06:42:40.811Z,25.20
2019-01-30T06:46:44.253Z,22.13
2019-01-30T06:50:47.710Z,25.33
2019-01-30T06:54:51.144Z,21.60
2019-01-30T06:58:54.657Z,21.73
2019-01-30T07:02:58.151Z,21.37
2019-01-30T07:07:01.575Z,19.87
2019-01-30T07:11:10.716Z,21.33
2019-01-30T07:15:10.311Z,20.10
2019-01-30T07:19:13.745Z,22.87
2019-01-30T07:23:17.159Z,19.93
2019-01-30T07:27:20.609Z,22.47
2019-01-30T07:31:24.107Z,22.67
2019-01-30T07:35:27.623Z,22.20
2019-01-30T07:39:31.148Z,24.33
2019-01-30T07:43:34.567Z,21.07
2019-01-30T07:47:37.995Z,19.00
2019-01-30T07:51:41.466Z,19.33
2019-01-30T07:55:44.903Z,21.67
2019-01-30T07:59:48.320Z,20.33
2019-01-30T08:03:51.764Z,21.43
2019-01-30T08:07:55.271Z,19.50
2019-01-30T08:11:58.715Z,21.50
2019-01-30T08:16:02.153Z,19.27
2019-01-30T08:20:08.650Z,24.03
2019-01-30T08:24:12.527Z,22.23
2019-01-30T08:28:16.544Z,22.30
2019-01-30T08:32:22.276Z,23.53
2019-01-30T08:36:25.440Z,23.77
2019-01-30T08:40:29.004Z,27.40
2019-01-30T08:44:32.442Z,23.67
2019-01-30T08:48:35.872Z,21.17
2019-01-30T08:52:39.307Z,20.53
2019-01-30T08:56:52.315Z,19.83
2019-01-30T09:00:47.896Z,23.17
2019-01-30T09:04:51.332Z,20.10
2019-01-30T09:08:54.764Z,19.20
2019-01-30T09:12:58.469Z,25.93
2019-01-30T09:17:01.909Z,23.00
2019-01-30T09:21:05.424Z,18.67
2019-01-30T09:25:11.979Z,24.93
2019-01-30T09:29:15.452Z,21.63
2019-01-30T09:33:25.595Z,22.80
2019-01-30T09:37:24.111Z,21.27
2019-01-30T09:41:27.650Z,22.93
2019-01-30T09:45:31.151Z,20.47
2019-01-30T09:49:34.613Z,20.13
2019-01-30T09:53:38.083Z,23.23
2019-01-30T09:57:41.515Z,22.33
2019-01-30T10:01:44.949Z,21.70
2019-01-30T10:05:49.352Z,24.10
2019-01-30T10:09:52.787Z,20.73
2019-01-30T10:13:56.219Z,18.30
2019-01-30T10:17:59.630Z,18.67
2019-01-30T10:22:03.172Z,21.33
2019-01-30T10:26:06.603Z,21.37
2019-01-30T10:30:13.258Z,22.57
2019-01-30T10:34:16.685Z,21.43
2019-01-30T10:38:20.115Z,19.83
2019-01-30T10:42:23.551Z,18.77
2019-01-30T10:46:26.986Z,19.33
2019-01-30T10:50:31.928Z,21.80
2019-01-30T10:54:35.367Z,21.23
2019-01-30T10:58:38.999Z,26.60
2019-01-30T11:02:42.435Z,19.63
2019-01-30T11:06:45.882Z,19.17
2019-01-30T11:10:50.978Z,17.73
2019-01-30T11:14:54.470Z,17.70
2019-01-30T11:18:57.894Z,18.97
2019-01-30T11:23:01.328Z,18.50
2019-01-30T11:27:04.768Z,17.80
2019-01-30T11:31:08.186Z,17.63
2019-01-30T11:35:13.715Z,17.00
2019-01-30T11:39:17.194Z,17.33
2019-01-30T11:43:20.635Z,18.80
2019-01-30T11:47:24.143Z,20.00
2019-01-30T11:51:27.597Z,16.40
2019-01-30T11:55:31.100Z,16.40
2019-01-30T11:59:34.537Z,17.50
2019-01-30T12:03:37.962Z,25.30
2019-01-30T12:07:41.532Z,15.87
2019-01-30T12:11:44.990Z,18.80
2019-01-30T12:15:48.462Z,15.03
2019-01-30T12:19:51.932Z,16.10
2019-01-30T12:23:55.366Z,12.47
2019-01-30T12:27:58.813Z,15.27
2019-01-30T12:32:02.256Z,13.97
2019-01-30T12:36:06.114Z,13.80
2019-01-30T12:40:13.086Z,17.00
2019-01-30T12:44:16.521Z,13.00
2019-01-30T12:48:19.937Z,11.33
2019-01-30T12:52:23.366Z,12.80
2019-01-30T12:56:26.828Z,10.77
2019-01-30T13:00:38.486Z,10.30
2019-01-30T13:04:41.906Z,7.63
2019-01-30T13:08:45.326Z,8.43
2019-01-30T13:12:48.816Z,9.93
2019-01-30T13:16:52.260Z,6.83
2019-01-30T13:20:55.708Z,6.30
2019-01-30T13:24:59.135Z,9.63
2019-01-30T13:29:02.742Z,6.40
2019-01-30T13:33:07.727Z,6.50
2019-01-30T13:37:11.151Z,4.93
2019-01-30T13:41:14.585Z,7.13
2019-01-30T13:45:18.552Z,10.73
2019-01-30T13:49:21.979Z,4.77
2019-01-30T13:53:25.466Z,5.73
2019-01-30T13:57:28.882Z,4.27
2019-01-30T14:01:32.310Z,3.17
2019-01-30T14:05:36.307Z,1.80
2019-01-30T14:09:39.735Z,2.07
2019-01-30T14:13:43.162Z,1.70
2019-01-30T14:17:46.613Z,1.30
2019-01-30T14:21:50.103Z,1.20
2019-01-30T14:25:53.537Z,0.90
2019-01-30T14:29:58.333Z,1.10
2019-01-30T14:34:02.240Z,2.83
2019-01-30T14:38:05.937Z,1.03
2019-01-30T14:42:09.399Z,1.10
2019-01-30T14:46:12.853Z,2.70
2019-01-30T14:50:21.618Z,1.20
2019-01-30T14:54:25.077Z,0.80
2019-01-30T14:58:28.575Z,1.03
2019-01-30T15:02:32.034Z,1.50
2019-01-30T15:06:35.500Z,1.00
2019-01-30T15:10:39.073Z,0.93
2019-01-30T15:14:42.532Z,1.20
2019-01-30T15:18:46.055Z,1.17
2019-01-30T15:22:49.576Z,1.53
2019-01-30T15:26:52.983Z,1.70
2019-01-30T15:30:56.405Z,1.80
2019-01-30T15:34:59.864Z,1.70
2019-01-30T15:39:04.831Z,3.60
2019-01-30T15:43:08.368Z,1.53
2019-01-30T15:47:11.772Z,2.00
2019-01-30T15:51:15.199Z,3.67
2019-01-30T15:55:18.699Z,1.50
2019-01-30T15:59:22.203Z,2.73
2019-01-30T16:03:26.210Z,2.83
2019-01-30T16:07:29.684Z,1.90
2019-01-30T16:11:33.107Z,1.40
2019-01-30T16:15:45.851Z,1.77
2019-01-30T16:19:49.492Z,2.30
2019-01-30T16:23:53.315Z,1.63
2019-01-30T16:27:56.707Z,2.47
2019-01-30T16:32:00.136Z,1.87
2019-01-30T16:36:03.640Z,1.90
2019-01-30T16:40:10.148Z,2.03
2019-01-30T16:44:13.803Z,2.77
2019-01-30T16:48:17.233Z,1.50
2019-01-30T16:52:20.667Z,3.07
2019-01-30T16:56:24.110Z,2.63
2019-01-30T17:00:32.719Z,2.13
2019-01-30T17:04:36.132Z,2.30
2019-01-30T17:08:39.569Z,2.13
2019-01-30T17:12:43.431Z,2.00
2019-01-30T17:16:46.850Z,2.50
2019-01-30T17:20:50.281Z,2.10
2019-01-30T17:24:53.699Z,2.07
2019-01-30T17:28:57.115Z,2.83
2019-01-30T17:33:00.712Z,3.30
2019-01-30T17:37:04.199Z,2.77
2019-01-30T17:41:07.893Z,2.20
2019-01-30T17:45:30.809Z,2.67
2019-01-30T17:49:34.252Z,2.83
2019-01-30T17:53:37.683Z,3.20
2019-01-30T17:57:41.118Z,2.80
2019-01-30T18:01:44.674Z,2.83
2019-01-30T18:05:48.215Z,2.63
2019-01-30T18:09:51.647Z,3.40
2019-01-30T18:13:55.098Z,5.13
2019-01-30T18:17:58.515Z,3.13
2019-01-30T18:22:01.928Z,7.80
2019-01-30T18:26:05.437Z,3.00
2019-01-30T18:30:12.223Z,3.43
2019-01-30T18:34:15.663Z,3.03
2019-01-30T18:38:19.156Z,3.97
2019-01-30T18:42:22.569Z,4.57
2019-01-30T18:46:25.989Z,6.53
2019-01-30T18:50:30.478Z,4.53
2019-01-30T18:54:33.900Z,4.47
2019-01-30T18:58:37.337Z,3.70
2019-01-30T19:02:40.768Z,6.00
2019-01-30T19:06:52.011Z,5.53
2019-01-30T19:10:49.429Z,3.57
2019-01-30T19:14:52.855Z,3.90
2019-01-30T19:18:56.306Z,4.13
2019-01-30T19:23:19.667Z,3.90
2019-01-30T19:27:23.168Z,3.43
2019-01-30T19:31:26.609Z,3.10
2019-01-30T19:35:30.033Z,8.63
2019-01-30T19:39:33.461Z,5.07
2019-01-30T19:43:39.284Z,5.50
2019-01-30T19:47:42.731Z,5.00
2019-01-30T19:51:46.158Z,4.07
2019-01-30T19:55:49.587Z,5.43
2019-01-30T19:59:53.007Z,5.80
2019-01-30T20:03:56.492Z,4.17
2019-01-30T20:08:00.001Z,4.27
2019-01-30T20:12:03.573Z,6.17
2019-01-30T20:16:07.101Z,5.73
2019-01-30T20:20:20.982Z,3.90
2019-01-30T20:24:23.358Z,3.77
2019-01-30T20:28:26.789Z,4.00
2019-01-30T20:32:30.231Z,4.47
2019-01-30T20:36:33.666Z,5.37
2019-01-30T20:40:37.092Z,6.57
2019-01-30T20:44:40.558Z,4.20
2019-01-30T20:48:47.183Z,71.67
2019-01-30T20:52:49.144Z,5.37
2019-01-30T20:56:53.467Z,4.63
2019-01-30T21:00:56.893Z,3.67
2019-01-30T21:05:00.316Z,5.23
2019-01-30T21:09:06.351Z,3.20
2019-01-30T21:13:09.844Z,4.20
2019-01-30T21:17:13.272Z,4.67
2019-01-30T21:21:16.674Z,5.40
2019-01-30T21:25:21.551Z,3.57
2019-01-30T21:29:24.992Z,5.43
2019-01-30T21:33:28.479Z,4.13
2019-01-30T21:37:31.885Z,6.40
2019-01-30T21:41:35.316Z,6.10
2019-01-30T21:45:38.751Z,5.40
2019-01-30T21:49:42.179Z,5.10
2019-01-30T21:53:45.621Z,10.17
2019-01-30T21:57:49.096Z,6.53
2019-01-30T22:01:52.533Z,9.17
2019-01-30T22:05:55.946Z,6.30
2019-01-30T22:09:59.380Z,9.67
2019-01-30T22:14:02.914Z,10.40
2019-01-30T22:18:06.471Z,5.77
2019-01-30T22:22:09.965Z,7.37
2019-01-30T22:26:13.400Z,6.93
2019-01-30T22:30:19.283Z,11.73
2019-01-30T22:34:22.716Z,7.10
2019-01-30T22:38:26.131Z,9.30
2019-01-30T22:42:29.560Z,5.37
2019-01-30T22:46:32.995Z,4.77
2019-01-30T22:50:36.420Z,8.70
2019-01-30T22:54:39.855Z,7.20
2019-01-30T22:58:43.291Z,7.23
2019-01-30T23:02:46.788Z,5.47
2019-01-30T23:06:59.020Z,6.80
2019-01-30T23:11:23.747Z,7.83
2019-01-30T23:15:33.071Z,10.10
2019-01-30T23:19:39.552Z,6.83
2019-01-30T23:24:01.234Z,6.70
2019-01-30T23:28:19.914Z,6.07
2019-01-30T23:32:44.169Z,9.40
2019-01-30T23:37:02.455Z,8.10
2019-01-30T23:41:08.953Z,5.87
2019-01-30T23:45:24.280Z,6.03
2019-01-30T23:50:02.647Z,6.27
2019-01-30T23:54:26.912Z,12.07
2019-01-30T23:58:48.415Z,7.87
